Time;durP1;ratioP1;P1;durP2;ratioP2;P2;SDS_P1;SDS_P2;PMS_P1;PMS_P2;Temp;Humidity;BMP_temperature;BMP_pressure;BME280_temperature;BME280_humidity;BME280_pressure;Samples;Min_cycle;Max_cycle;Signal;HPM_P1;HPM_P2
2023/01/25 00:01:58;;;;;;;3.17;2.75;;;20.40;29.00;;;;;;5032172;28;20061;-46
2023/01/25 00:04:24;;;;;;;3.08;2.53;;;20.40;29.00;;;;;;5033960;28;20064;-51
2023/01/25 00:06:50;;;;;;;2.40;2.20;;;20.40;28.90;;;;;;5034564;28;20017;-48
2023/01/25 00:09:17;;;;;;;2.80;2.45;;;20.40;28.90;;;;;;5032120;28;20105;-45
2023/01/25 00:11:43;;;;;;;2.83;2.53;;;20.40;28.90;;;;;;5030475;28;20101;-50
2023/01/25 00:14:13;;;;;;;3.28;2.38;;;20.40;28.90;;;;;;5032497;28;20029;-44
2023/01/25 00:16:39;;;;;;;3.75;2.95;;;20.40;28.90;;;;;;5034612;28;20041;-47
2023/01/25 00:19:06;;;;;;;3.15;2.40;;;20.30;28.90;;;;;;5031712;28;20030;-49
2023/01/25 00:21:35;;;;;;;2.55;2.28;;;20.30;28.90;;;;;;5031852;28;20042;-51
2023/01/25 00:24:02;;;;;;;2.67;2.20;;;20.30;28.90;;;;;;5029048;28;20108;-46
2023/01/25 00:26:32;;;;;;;2.75;2.28;;;20.30;28.90;;;;;;5033120;28;20068;-49
2023/01/25 00:28:58;;;;;;;3.38;2.50;;;20.30;28.90;;;;;;5029737;28;20025;-50
2023/01/25 00:31:33;;;;;;;2.85;2.55;;;20.30;28.90;;;;;;5033480;28;20029;-47
2023/01/25 00:34:24;;;;;;;2.70;2.50;;;20.30;28.90;;;;;;5032657;28;20361;-49
2023/01/25 00:36:57;;;;;;;2.80;2.20;;;20.30;28.90;;;;;;5033843;28;20038;-48
2023/01/25 00:39:25;;;;;;;3.03;2.60;;;20.30;28.90;;;;;;5029015;28;20029;-50
2023/01/25 00:41:51;;;;;;;2.88;2.30;;;20.20;28.80;;;;;;5015890;28;20461;-46
2023/01/25 00:44:17;;;;;;;4.30;2.60;;;20.20;28.80;;;;;;5021855;28;20025;-51
2023/01/25 00:46:43;;;;;;;2.63;2.30;;;20.30;28.80;;;;;;5019396;28;20038;-47
2023/01/25 00:49:26;;;;;;;2.88;2.35;;;20.20;28.70;;;;;;5033784;28;20449;-50
2023/01/25 00:51:54;;;;;;;2.63;2.42;;;20.20;28.70;;;;;;5013521;28;20025;-45
2023/01/25 00:54:21;;;;;;;2.90;2.60;;;20.20;28.70;;;;;;5015159;28;20109;-47
2023/01/25 00:56:51;;;;;;;3.70;2.35;;;20.20;28.70;;;;;;5018009;28;20037;-51
2023/01/25 00:59:17;;;;;;;2.75;2.30;;;20.20;28.70;;;;;;5019099;28;20471;-50
2023/01/25 01:01:43;;;;;;;2.70;2.40;;;20.20;28.70;;;;;;5035784;28;20029;-51
2023/01/25 01:04:09;;;;;;;3.00;2.47;;;20.20;28.70;;;;;;5033398;28;20036;-44
2023/01/25 01:06:37;;;;;;;2.50;2.28;;;20.20;28.70;;;;;;5031945;28;20079;-47
2023/01/25 01:09:04;;;;;;;3.95;2.63;;;20.20;28.70;;;;;;5030471;28;20030;-45
2023/01/25 01:11:30;;;;;;;2.85;2.58;;;20.20;28.70;;;;;;5017766;28;20063;-45
2023/01/25 01:13:57;;;;;;;2.75;2.33;;;20.10;28.70;;;;;;5031139;28;20032;-44
2023/01/25 01:16:23;;;;;;;2.90;2.60;;;20.10;28.70;;;;;;5031039;28;20037;-47
2023/01/25 01:18:51;;;;;;;3.50;2.75;;;20.10;28.70;;;;;;5032645;28;20103;-48
2023/01/25 01:21:18;;;;;;;3.03;2.55;;;20.10;28.70;;;;;;5029093;28;20084;-44
2023/01/25 01:23:43;;;;;;;2.90;2.53;;;20.10;28.70;;;;;;5030573;28;20460;-45
2023/01/25 01:26:12;;;;;;;2.90;2.60;;;20.10;28.70;;;;;;5031894;28;20033;-46
2023/01/25 01:28:39;;;;;;;3.20;2.75;;;20.10;28.80;;;;;;5032114;28;20029;-47
2023/01/25 01:31:08;;;;;;;4.00;2.70;;;20.10;28.90;;;;;;5031943;28;20337;-47
2023/01/25 01:33:36;;;;;;;2.97;2.47;;;20.10;28.90;;;;;;5013887;28;20115;-46
2023/01/25 01:36:13;;;;;;;2.72;2.45;;;20.10;28.80;;;;;;5021009;28;20432;-51
2023/01/25 01:38:39;;;;;;;3.00;2.70;;;20.10;28.80;;;;;;5027683;28;20037;-46
2023/01/25 01:41:05;;;;;;;3.40;2.65;;;20.00;28.80;;;;;;5021058;28;20025;-49
2023/01/25 01:43:32;;;;;;;2.80;2.50;;;20.10;28.80;;;;;;5016742;28;20033;-48
2023/01/25 01:46:02;;;;;;;2.78;2.40;;;20.10;28.80;;;;;;5020390;28;20108;-50
2023/01/25 01:48:40;;;;;;;2.83;2.10;;;20.10;28.80;;;;;;5029174;28;20033;-45
2023/01/25 01:51:54;;;;;;;2.92;2.63;;;20.10;28.80;;;;;;5032429;28;20030;-48
2023/01/25 01:54:27;;;;;;;3.10;2.80;;;20.10;28.80;;;;;;4999605;28;20088;-46
2023/01/25 01:57:16;;;;;;;3.25;2.88;;;20.00;28.70;;;;;;5014320;28;20098;-44
2023/01/25 01:59:45;;;;;;;3.08;2.47;;;20.00;28.80;;;;;;5018777;28;20053;-46
2023/01/25 02:02:13;;;;;;;3.35;3.05;;;20.00;28.70;;;;;;5023093;28;20113;-45
2023/01/25 02:04:40;;;;;;;2.55;2.35;;;20.00;28.70;;;;;;5016054;28;20030;-44
2023/01/25 02:07:26;;;;;;;2.97;2.60;;;20.00;28.70;;;;;;5016713;28;20064;-46
2023/01/25 02:09:53;;;;;;;2.97;2.67;;;20.00;28.70;;;;;;5020117;28;21299;-47
2023/01/25 02:12:21;;;;;;;2.90;2.60;;;20.00;28.70;;;;;;5017683;28;20035;-50
2023/01/25 02:14:49;;;;;;;3.53;2.80;;;20.00;28.70;;;;;;5017168;28;20029;-49
2023/01/25 02:17:37;;;;;;;2.70;2.50;;;19.90;28.70;;;;;;5030675;28;20069;-52
2023/01/25 02:20:22;;;;;;;2.63;2.42;;;20.00;28.70;;;;;;5027580;28;20029;-49
2023/01/25 02:23:09;;;;;;;3.47;2.78;;;19.90;28.70;;;;;;5024250;28;20033;-49
2023/01/25 02:25:36;;;;;;;3.55;2.90;;;19.90;28.70;;;;;;5030553;28;20029;-47
2023/01/25 02:28:14;;;;;;;3.40;2.75;;;19.90;28.70;;;;;;5015194;28;20026;-49
2023/01/25 02:30:44;;;;;;;3.00;2.67;;;19.90;28.70;;;;;;5019081;28;20029;-46
2023/01/25 02:33:10;;;;;;;3.28;2.97;;;19.90;28.70;;;;;;5020127;28;20048;-46
2023/01/25 02:35:46;;;;;;;3.22;2.88;;;19.90;28.80;;;;;;5030764;28;20380;-45
2023/01/25 02:38:15;;;;;;;3.45;2.50;;;19.90;28.80;;;;;;5016339;28;20025;-50
2023/01/25 02:40:56;;;;;;;3.30;3.00;;;19.90;28.90;;;;;;5030349;28;20116;-49
2023/01/25 02:43:23;;;;;;;3.20;2.50;;;19.90;28.90;;;;;;5016833;28;20045;-50
2023/01/25 02:45:57;;;;;;;3.25;2.80;;;19.90;29.00;;;;;;5019879;28;20022;-48
2023/01/25 02:48:24;;;;;;;3.50;2.63;;;19.90;29.00;;;;;;5040448;28;20037;-48
2023/01/25 02:50:50;;;;;;;3.13;2.63;;;19.90;28.90;;;;;;5030044;28;20449;-44
2023/01/25 02:53:15;;;;;;;3.00;2.70;;;19.80;28.90;;;;;;5028963;28;20036;-49
2023/01/25 02:55:41;;;;;;;3.22;2.88;;;19.80;28.90;;;;;;5020470;28;20037;-48
2023/01/25 02:58:07;;;;;;;3.08;2.55;;;19.80;28.80;;;;;;5016948;28;20041;-46
2023/01/25 03:00:33;;;;;;;3.13;2.83;;;19.80;28.80;;;;;;5017182;28;20029;-45
2023/01/25 03:02:59;;;;;;;3.10;2.80;;;19.80;28.80;;;;;;5028951;28;20033;-48
2023/01/25 03:05:25;;;;;;;2.75;2.40;;;19.80;28.80;;;;;;5016862;28;20364;-44
2023/01/25 03:07:51;;;;;;;2.72;2.47;;;19.80;28.80;;;;;;5016198;28;20069;-45
2023/01/25 03:10:17;;;;;;;3.40;2.80;;;19.80;28.80;;;;;;5016697;28;20053;-48
2023/01/25 03:12:43;;;;;;;2.67;2.47;;;19.80;28.80;;;;;;5019649;28;20414;-47
2023/01/25 03:15:09;;;;;;;3.33;2.83;;;19.80;28.80;;;;;;5019394;28;20037;-51
2023/01/25 03:17:36;;;;;;;2.78;2.50;;;19.80;28.80;;;;;;5015473;28;20107;-48
2023/01/25 03:20:02;;;;;;;2.95;2.60;;;19.80;28.80;;;;;;5017248;28;20025;-48
2023/01/25 03:22:30;;;;;;;3.33;2.58;;;19.80;29.30;;;;;;5018110;28;20029;-46
2023/01/25 03:24:57;;;;;;;2.60;2.40;;;19.80;28.80;;;;;;5015041;28;20140;-49
2023/01/25 03:27:23;;;;;;;2.47;2.28;;;19.80;28.80;;;;;;5017388;28;20460;-50
2023/01/25 03:29:59;;;;;;;2.90;2.55;;;19.70;28.70;;;;;;5019186;28;20030;-51
2023/01/25 03:32:28;;;;;;;3.33;2.72;;;19.70;28.70;;;;;;5010038;28;20455;-50
2023/01/25 03:34:54;;;;;;;2.60;2.30;;;19.70;28.70;;;;;;5031885;28;20116;-48
2023/01/25 03:37:20;;;;;;;2.88;2.60;;;19.70;28.70;;;;;;5017340;28;20168;-46
2023/01/25 03:39:47;;;;;;;2.85;2.40;;;19.70;28.70;;;;;;5017819;28;20029;-50
2023/01/25 03:42:14;;;;;;;4.13;2.67;;;19.70;28.80;;;;;;5016720;28;20056;-50
2023/01/25 03:44:41;;;;;;;2.80;2.50;;;19.70;28.80;;;;;;5019334;28;20045;-51
2023/01/25 03:47:07;;;;;;;2.53;2.33;;;19.70;28.70;;;;;;5018389;28;20040;-51
2023/01/25 03:49:34;;;;;;;2.75;2.55;;;19.70;28.70;;;;;;5014682;28;20033;-49
2023/01/25 03:52:00;;;;;;;2.80;2.60;;;19.70;28.70;;;;;;5019836;28;20021;-51
2023/01/25 03:54:33;;;;;;;2.95;2.58;;;19.70;28.70;;;;;;5002925;28;20033;-47
2023/01/25 03:56:59;;;;;;;2.83;2.60;;;19.70;28.70;;;;;;5015246;28;20037;-46
2023/01/25 03:59:27;;;;;;;3.35;2.53;;;19.60;28.70;;;;;;5027587;28;20436;-46
2023/01/25 04:01:54;;;;;;;2.70;2.50;;;19.70;28.70;;;;;;5016068;28;20219;-49
2023/01/25 04:04:20;;;;;;;2.85;2.55;;;19.60;28.70;;;;;;5028723;28;20220;-46
2023/01/25 04:06:47;;;;;;;2.95;2.65;;;19.60;28.70;;;;;;5013137;28;20040;-50
2023/01/25 04:09:13;;;;;;;3.17;2.78;;;19.60;28.70;;;;;;5015694;28;20033;-50
2023/01/25 04:11:44;;;;;;;3.15;2.85;;;19.60;28.70;;;;;;5016617;28;20032;-49
2023/01/25 04:14:11;;;;;;;2.92;2.63;;;19.60;28.70;;;;;;5012473;28;20125;-48
2023/01/25 04:16:44;;;;;;;3.10;2.72;;;19.60;28.70;;;;;;5035294;28;20042;-51
2023/01/25 04:19:36;;;;;;;2.90;2.60;;;19.60;28.60;;;;;;5000204;28;20056;-47
2023/01/25 04:22:03;;;;;;;3.15;2.78;;;19.60;28.60;;;;;;5020643;28;20140;-46
2023/01/25 04:24:35;;;;;;;3.08;2.70;;;19.60;28.60;;;;;;5015866;28;20021;-46
2023/01/25 04:27:04;;;;;;;3.17;2.75;;;19.60;28.60;;;;;;5018330;28;20026;-51
2023/01/25 04:29:35;;;;;;;3.38;3.00;;;19.60;28.60;;;;;;5015833;28;20044;-48
2023/01/25 04:32:01;;;;;;;3.15;2.85;;;19.60;28.70;;;;;;5034764;28;20453;-44
2023/01/25 04:34:28;;;;;;;2.97;2.67;;;19.60;28.60;;;;;;5014089;28;20029;-47
2023/01/25 04:36:53;;;;;;;3.08;2.70;;;19.50;29.10;;;;;;5011293;28;20038;-44
2023/01/25 04:39:19;;;;;;;3.35;2.53;;;19.60;28.60;;;;;;5011411;28;20041;-48
2023/01/25 04:41:46;;;;;;;3.08;2.78;;;19.50;28.60;;;;;;5014160;28;20444;-50
2023/01/25 04:44:12;;;;;;;3.40;2.90;;;19.50;28.60;;;;;;5016173;28;20033;-49
2023/01/25 04:46:40;;;;;;;2.72;2.50;;;19.50;28.60;;;;;;5017066;28;20033;-48
2023/01/25 04:49:06;;;;;;;3.45;2.75;;;19.50;28.60;;;;;;5021742;28;20364;-45
2023/01/25 04:51:33;;;;;;;2.80;2.55;;;19.50;28.60;;;;;;5014685;28;20468;-46
2023/01/25 04:54:00;;;;;;;3.55;2.83;;;19.50;28.60;;;;;;5021448;28;20025;-49
2023/01/25 04:56:27;;;;;;;3.13;2.80;;;19.50;28.60;;;;;;5017499;28;20033;-50
2023/01/25 04:58:54;;;;;;;2.35;2.15;;;19.50;28.60;;;;;;5018247;28;20030;-48
2023/01/25 05:01:21;;;;;;;3.08;2.78;;;19.50;28.60;;;;;;5021284;28;20029;-48
2023/01/25 05:03:48;;;;;;;2.83;2.50;;;19.50;28.60;;;;;;5019346;28;20127;-50
2023/01/25 05:06:31;;;;;;;2.63;2.42;;;19.50;29.10;;;;;;5017380;28;20457;-47
2023/01/25 05:08:57;;;;;;;2.97;2.47;;;19.50;28.60;;;;;;5018604;28;20025;-50
2023/01/25 05:11:23;;;;;;;3.00;2.70;;;19.40;28.60;;;;;;5020070;28;20195;-47
2023/01/25 05:13:54;;;;;;;2.90;2.60;;;19.40;28.60;;;;;;5020663;28;20025;-44
2023/01/25 05:16:28;;;;;;;3.33;2.83;;;19.50;28.60;;;;;;5018406;28;20025;-51
2023/01/25 05:18:55;;;;;;;4.35;2.95;;;19.40;28.60;;;;;;5016377;28;20036;-50
2023/01/25 05:24:11;;;;;;;3.13;2.70;;;19.40;28.70;;;;;;5031251;28;20053;-50
2023/01/25 05:29:21;;;;;;;2.58;2.38;;;19.40;28.90;;;;;;5017749;28;20029;-46
2023/01/25 05:31:56;;;;;;;3.60;2.72;;;19.40;28.80;;;;;;5021069;28;20116;-49
2023/01/25 05:34:24;;;;;;;3.40;3.10;;;19.40;28.80;;;;;;5018235;28;20033;-51
2023/01/25 05:36:51;;;;;;;3.75;3.05;;;19.40;28.80;;;;;;5036423;28;20128;-47
2023/01/25 05:39:18;;;;;;;3.17;2.88;;;19.40;28.80;;;;;;5020337;28;20026;-46
2023/01/25 05:41:46;;;;;;;3.33;3.03;;;19.40;28.70;;;;;;5011890;28;20040;-51
2023/01/25 05:44:13;;;;;;;3.40;3.10;;;19.40;28.70;;;;;;5020253;28;20091;-49
2023/01/25 05:46:43;;;;;;;3.55;3.13;;;19.40;28.70;;;;;;5012945;28;20033;-50
2023/01/25 05:49:10;;;;;;;4.53;2.92;;;19.40;28.70;;;;;;5018637;28;20160;-48
2023/01/25 05:51:38;;;;;;;3.30;3.00;;;19.40;28.70;;;;;;5020724;28;20029;-46
2023/01/25 05:54:06;;;;;;;3.53;3.22;;;19.40;28.60;;;;;;5015616;28;20040;-45
2023/01/25 05:56:32;;;;;;;3.92;3.47;;;19.40;28.60;;;;;;5017556;28;20038;-45
2023/01/25 05:58:59;;;;;;;3.80;3.40;;;19.30;28.60;;;;;;5016808;28;20026;-46
2023/01/25 06:01:27;;;;;;;3.78;3.38;;;19.40;28.60;;;;;;5019218;28;20029;-48
2023/01/25 06:03:56;;;;;;;3.83;3.42;;;19.40;28.60;;;;;;5017869;28;20171;-50
2023/01/25 06:06:24;;;;;;;4.10;3.70;;;19.30;28.60;;;;;;5017975;28;20021;-50
2023/01/25 06:08:52;;;;;;;4.03;3.65;;;19.30;28.60;;;;;;5021902;28;20572;-50
2023/01/25 06:11:20;;;;;;;3.50;3.20;;;19.30;28.60;;;;;;5019999;28;20025;-51
2023/01/25 06:13:48;;;;;;;3.72;3.42;;;19.30;28.60;;;;;;4998136;28;20365;-49
2023/01/25 06:16:15;;;;;;;3.58;3.28;;;19.30;28.60;;;;;;5021191;28;20040;-49
2023/01/25 06:18:42;;;;;;;3.80;3.40;;;19.30;28.60;;;;;;5026758;28;20087;-51
2023/01/25 06:21:28;;;;;;;3.88;3.50;;;19.30;28.60;;;;;;4988056;28;20068;-50
2023/01/25 06:23:55;;;;;;;4.10;3.70;;;19.30;28.60;;;;;;5015198;28;20056;-48
2023/01/25 06:26:21;;;;;;;3.67;3.30;;;19.30;28.60;;;;;;5028549;28;20037;-52
2023/01/25 06:28:47;;;;;;;3.92;3.53;;;19.30;28.60;;;;;;5031104;28;20487;-47
2023/01/25 06:31:15;;;;;;;3.70;3.40;;;19.30;28.60;;;;;;5028512;28;20036;-50
2023/01/25 06:33:43;;;;;;;3.55;3.25;;;19.30;28.60;;;;;;5014753;28;20022;-50
2023/01/25 06:36:14;;;;;;;4.20;3.60;;;19.30;28.60;;;;;;5014208;28;20060;-50
2023/01/25 06:38:40;;;;;;;3.90;3.50;;;19.30;28.60;;;;;;5030586;28;20111;-51
2023/01/25 06:41:09;;;;;;;4.35;3.60;;;19.30;28.60;;;;;;5027657;28;20026;-49
2023/01/25 06:43:36;;;;;;;3.72;3.33;;;19.30;28.60;;;;;;5030954;28;20522;-50
2023/01/25 06:46:04;;;;;;;3.60;3.30;;;19.30;28.60;;;;;;5028558;28;20033;-49
2023/01/25 06:48:32;;;;;;;3.70;3.30;;;19.30;28.60;;;;;;5028601;28;20120;-46
2023/01/25 06:51:00;;;;;;;4.00;3.60;;;19.20;28.60;;;;;;5030760;28;20052;-54
2023/01/25 06:53:28;;;;;;;5.65;4.10;;;19.20;28.60;;;;;;5029312;28;20029;-50
2023/01/25 06:56:08;;;;;;;3.78;3.47;;;19.20;28.60;;;;;;5030105;28;20036;-48
2023/01/25 06:58:34;;;;;;;3.75;3.45;;;19.20;28.60;;;;;;5028447;28;20183;-49
2023/01/25 07:01:10;;;;;;;3.92;3.47;;;19.20;28.70;;;;;;5029205;28;20105;-50
2023/01/25 07:03:38;;;;;;;4.13;3.72;;;19.20;28.70;;;;;;5026933;28;20112;-50
2023/01/25 07:06:06;;;;;;;3.95;3.55;;;19.20;28.70;;;;;;5029251;28;20095;-52
2023/01/25 07:08:33;;;;;;;3.95;3.40;;;19.20;28.70;;;;;;5028960;28;20025;-50
2023/01/25 07:11:01;;;;;;;4.03;3.60;;;19.20;28.70;;;;;;5030282;28;20022;-51
2023/01/25 07:13:29;;;;;;;3.70;3.40;;;19.20;28.70;;;;;;5030751;28;20026;-50
2023/01/25 07:16:03;;;;;;;4.20;3.80;;;19.20;28.70;;;;;;5018366;28;20036;-47
2023/01/25 07:18:30;;;;;;;4.15;3.75;;;19.20;28.70;;;;;;5029912;28;20083;-50
2023/01/25 07:21:22;;;;;;;4.32;3.92;;;19.20;28.70;;;;;;5031704;28;20037;-51
2023/01/25 07:23:50;;;;;;;3.83;3.50;;;19.20;28.80;;;;;;5028016;28;20441;-49
2023/01/25 07:26:25;;;;;;;4.28;3.88;;;19.20;28.80;;;;;;5032825;28;20025;-47
2023/01/25 07:28:53;;;;;;;4.47;4.07;;;19.20;28.70;;;;;;5031154;28;20062;-47
2023/01/25 07:31:19;;;;;;;4.57;3.75;;;19.20;28.70;;;;;;5034938;28;20025;-47
2023/01/25 07:33:53;;;;;;;4.40;4.00;;;19.10;28.70;;;;;;5032760;28;20047;-46
2023/01/25 07:36:19;;;;;;;4.10;3.70;;;19.10;28.70;;;;;;5031823;28;20042;-51
2023/01/25 07:38:51;;;;;;;3.63;3.33;;;19.10;28.80;;;;;;5033304;28;20112;-53
2023/01/25 07:41:17;;;;;;;4.00;3.60;;;19.20;29.00;;;;;;5032804;28;20108;-50
2023/01/25 07:43:43;;;;;;;3.38;3.08;;;19.10;29.00;;;;;;5033034;28;20224;-51
2023/01/25 07:46:12;;;;;;;3.83;2.80;;;19.10;29.10;;;;;;5009459;28;20035;-49
2023/01/25 07:48:45;;;;;;;3.70;2.85;;;19.10;29.30;;;;;;5030504;28;20033;-53
2023/01/25 07:51:25;;;;;;;3.65;2.88;;;19.10;29.50;;;;;;5033600;28;20056;-48
2023/01/25 07:54:00;;;;;;;3.33;2.63;;;19.20;29.70;;;;;;5034285;28;20025;-48
2023/01/25 07:56:35;;;;;;;2.88;2.60;;;19.20;29.80;;;;;;5034670;28;20037;-52
2023/01/25 07:59:07;;;;;;;4.20;2.83;;;19.20;29.80;;;;;;5017696;28;20388;-49
2023/01/25 08:01:36;;;;;;;4.63;3.05;;;19.30;29.90;;;;;;5034668;28;20102;-49
2023/01/25 08:04:10;;;;;;;6.40;3.13;;;19.30;29.90;;;;;;5030271;28;20091;-48
2023/01/25 08:06:50;;;;;;;4.72;2.83;;;19.40;29.90;;;;;;5032839;28;20033;-51
2023/01/25 08:09:24;;;;;;;4.55;2.58;;;19.40;29.90;;;;;;5031298;28;20053;-55
2023/01/25 08:11:53;;;;;;;4.97;3.22;;;19.50;29.90;;;;;;5034659;28;20108;-54
2023/01/25 08:14:23;;;;;;;4.57;2.53;;;19.60;30.00;;;;;;5034614;28;20028;-53
2023/01/25 08:16:52;;;;;;;3.58;2.95;;;19.70;30.10;;;;;;5034772;28;20033;-46
2023/01/25 08:19:28;;;;;;;4.28;2.88;;;19.70;30.10;;;;;;5036368;28;20052;-47
2023/01/25 08:21:57;;;;;;;3.13;2.58;;;19.70;30.10;;;;;;5020426;28;20064;-50
2023/01/25 08:24:27;;;;;;;4.38;3.03;;;19.80;30.10;;;;;;5011721;28;20124;-50
2023/01/25 08:26:59;;;;;;;3.63;2.50;;;19.90;30.00;;;;;;5018512;28;20531;-51
2023/01/25 08:29:27;;;;;;;3.50;2.85;;;19.90;30.00;;;;;;5018578;28;20025;-49
2023/01/25 08:31:55;;;;;;;3.42;2.47;;;20.00;29.90;;;;;;5018437;28;20361;-48
2023/01/25 08:34:30;;;;;;;4.18;2.83;;;20.10;29.80;;;;;;5017870;28;20057;-46
2023/01/25 08:37:03;;;;;;;3.65;2.53;;;20.20;29.80;;;;;;5023218;28;20517;-47
2023/01/25 08:39:34;;;;;;;4.13;2.90;;;20.20;29.70;;;;;;5015252;28;20437;-52
2023/01/25 08:42:05;;;;;;;3.55;2.40;;;20.30;29.70;;;;;;5015967;28;20025;-49
2023/01/25 08:44:31;;;;;;;3.63;2.40;;;20.30;29.70;;;;;;5006061;28;20026;-48
2023/01/25 08:47:03;;;;;;;4.43;2.42;;;20.30;29.60;;;;;;5002784;28;20108;-46
2023/01/25 08:49:33;;;;;;;2.88;2.20;;;20.40;29.50;;;;;;5013629;28;20026;-47
2023/01/25 08:51:59;;;;;;;3.58;2.72;;;20.40;29.40;;;;;;5008449;28;20488;-49
2023/01/25 08:54:24;;;;;;;3.58;2.60;;;20.50;29.30;;;;;;5006104;28;20037;-50
2023/01/25 08:56:52;;;;;;;3.25;2.40;;;20.50;29.20;;;;;;5011933;28;20030;-49
2023/01/25 08:59:18;;;;;;;4.50;2.80;;;20.50;29.60;;;;;;5015684;28;20117;-48
2023/01/25 09:01:43;;;;;;;4.50;2.25;;;20.60;29.10;;;;;;5015889;28;20101;-50
2023/01/25 09:04:09;;;;;;;3.95;2.60;;;20.60;29.10;;;;;;5017385;28;20488;-45
2023/01/25 09:06:35;;;;;;;2.88;2.58;;;20.60;29.00;;;;;;5018051;28;20033;-50
2023/01/25 09:09:03;;;;;;;4.15;2.45;;;20.70;28.90;;;;;;5017894;28;20434;-51
2023/01/25 09:11:29;;;;;;;2.90;2.55;;;20.70;28.80;;;;;;5017078;28;20100;-49
2023/01/25 09:13:55;;;;;;;2.67;2.38;;;20.70;28.70;;;;;;5017928;28;20053;-49
2023/01/25 09:16:29;;;;;;;2.97;2.40;;;20.70;28.60;;;;;;5016186;28;20034;-48
2023/01/25 09:18:57;;;;;;;3.55;2.60;;;20.80;28.50;;;;;;5015778;28;20457;-51
2023/01/25 09:21:23;;;;;;;3.85;3.03;;;20.80;28.40;;;;;;5029775;28;20042;-52
2023/01/25 09:23:50;;;;;;;2.45;2.25;;;20.80;28.30;;;;;;5037382;28;20171;-52
2023/01/25 09:26:17;;;;;;;3.47;2.78;;;20.80;28.30;;;;;;5036986;28;20052;-47
2023/01/25 09:28:47;;;;;;;3.22;2.85;;;20.80;28.20;;;;;;5036645;28;20026;-46
2023/01/25 09:31:13;;;;;;;2.83;2.53;;;20.90;28.20;;;;;;5037255;28;20048;-52
2023/01/25 09:34:05;;;;;;;2.83;2.60;;;20.90;28.10;;;;;;5019892;28;20029;-51
2023/01/25 09:36:31;;;;;;;3.00;2.70;;;20.90;28.10;;;;;;5036890;28;20116;-49
2023/01/25 09:38:57;;;;;;;3.80;3.00;;;20.90;28.00;;;;;;5037520;28;20124;-45
2023/01/25 09:41:26;;;;;;;2.97;2.70;;;20.90;28.00;;;;;;5036222;28;20116;-47
2023/01/25 09:44:06;;;;;;;3.47;3.17;;;20.90;28.00;;;;;;5018974;28;20026;-50
2023/01/25 09:46:47;;;;;;;3.38;3.08;;;20.90;27.90;;;;;;5037157;28;20029;-50
2023/01/25 09:49:22;;;;;;;4.10;3.25;;;20.90;27.90;;;;;;5017508;28;20037;-49
2023/01/25 09:51:57;;;;;;;3.47;2.97;;;20.90;27.80;;;;;;5015918;28;20505;-47
2023/01/25 09:54:24;;;;;;;3.50;3.20;;;20.90;27.90;;;;;;5036453;28;20057;-48
2023/01/25 09:56:51;;;;;;;4.03;3.03;;;20.90;27.80;;;;;;5036887;28;20084;-51
2023/01/25 09:59:22;;;;;;;4.07;3.28;;;20.90;27.80;;;;;;5036009;28;20397;-48
2023/01/25 10:01:56;;;;;;;3.38;3.00;;;21.00;27.80;;;;;;5035972;28;20436;-52
2023/01/25 10:04:25;;;;;;;3.92;3.53;;;20.90;27.80;;;;;;5036104;28;20433;-52
2023/01/25 10:06:57;;;;;;;3.90;3.40;;;21.00;27.80;;;;;;5036715;28;20065;-51
2023/01/25 10:09:40;;;;;;;3.78;3.38;;;20.90;27.80;;;;;;5035071;28;20109;-49
2023/01/25 10:12:27;;;;;;;3.40;3.10;;;20.90;27.80;;;;;;5017817;28;20044;-49
2023/01/25 10:14:53;;;;;;;3.63;3.22;;;20.90;27.80;;;;;;5035715;28;20033;-51
2023/01/25 10:17:25;;;;;;;4.07;3.67;;;20.90;27.80;;;;;;5035192;28;20060;-51
2023/01/25 10:20:17;;;;;;;4.35;3.50;;;20.90;27.80;;;;;;5016410;28;20034;-48
2023/01/25 10:22:58;;;;;;;3.50;3.20;;;20.90;27.80;;;;;;5025054;28;20360;-47
2023/01/25 10:25:44;;;;;;;3.72;3.30;;;20.90;27.80;;;;;;5035912;28;20044;-49
2023/01/25 10:28:36;;;;;;;4.05;3.65;;;20.90;27.80;;;;;;5036180;28;20067;-50
2023/01/25 10:31:21;;;;;;;3.70;3.10;;;20.90;27.80;;;;;;5036275;28;20377;-48
2023/01/25 10:33:48;;;;;;;4.00;3.45;;;20.90;27.80;;;;;;5034988;28;20057;-49
2023/01/25 10:36:17;;;;;;;4.00;3.60;;;20.90;27.80;;;;;;5036098;28;20175;-50
2023/01/25 10:38:46;;;;;;;3.95;3.40;;;20.90;27.80;;;;;;5036028;28;20044;-49
2023/01/25 10:41:27;;;;;;;3.72;3.42;;;20.90;27.80;;;;;;5035374;28;20037;-49
2023/01/25 10:46:50;;;;;;;4.05;3.65;;;20.80;27.80;;;;;;5030931;28;20025;-48
2023/01/25 10:49:28;;;;;;;4.45;3.35;;;20.80;27.80;;;;;;5032371;28;20700;-51
2023/01/25 10:51:55;;;;;;;3.88;3.53;;;20.80;27.80;;;;;;5020416;28;20025;-50
2023/01/25 10:54:22;;;;;;;3.58;3.20;;;20.80;27.80;;;;;;5024090;28;20033;-52
2023/01/25 10:56:48;;;;;;;4.43;3.60;;;20.80;27.90;;;;;;5018470;28;20579;-52
2023/01/25 10:59:25;;;;;;;3.42;3.13;;;20.80;27.90;;;;;;5026519;28;20116;-51
2023/01/25 11:01:51;;;;;;;3.33;3.03;;;20.80;27.90;;;;;;5021879;28;20034;-53
2023/01/25 11:04:30;;;;;;;3.60;3.30;;;20.80;28.00;;;;;;5021324;28;20063;-51
2023/01/25 11:06:56;;;;;;;3.55;3.22;;;20.80;28.00;;;;;;5024063;28;20026;-52
2023/01/25 11:09:28;;;;;;;5.18;3.47;;;20.90;28.10;;;;;;5035775;28;20520;-52
2023/01/25 11:11:56;;;;;;;3.78;3.20;;;20.80;28.10;;;;;;5003327;28;20448;-49
2023/01/25 11:14:28;;;;;;;3.53;2.97;;;20.90;28.30;;;;;;5019783;28;20065;-51
2023/01/25 11:16:56;;;;;;;3.45;3.08;;;20.80;28.80;;;;;;5015264;28;20045;-52
2023/01/25 11:19:35;;;;;;;3.83;3.03;;;20.80;28.40;;;;;;5033384;28;20479;-49
2023/01/25 11:22:18;;;;;;;3.83;2.90;;;20.90;28.40;;;;;;5017519;28;20049;-51
2023/01/25 11:24:44;;;;;;;4.35;3.10;;;20.90;28.40;;;;;;5035032;28;20057;-50
2023/01/25 11:27:36;;;;;;;3.30;3.00;;;20.90;28.40;;;;;;5035508;28;20349;-52
2023/01/25 11:30:14;;;;;;;4.85;2.83;;;20.90;28.40;;;;;;5031272;28;20049;-51
2023/01/25 11:32:41;;;;;;;3.67;2.95;;;20.90;28.40;;;;;;5034533;28;20150;-47
2023/01/25 11:35:23;;;;;;;3.25;2.95;;;20.90;28.40;;;;;;5035051;28;20029;-51
2023/01/25 11:38:11;;;;;;;4.20;3.47;;;20.90;28.40;;;;;;5035349;28;20052;-49
2023/01/25 11:41:05;;;;;;;3.97;3.55;;;20.90;28.40;;;;;;5035007;28;20045;-47
2023/01/25 11:43:40;;;;;;;3.80;3.13;;;20.90;28.40;;;;;;5017646;28;20346;-53
2023/01/25 11:46:47;;;;;;;5.32;4.15;;;20.90;28.30;;;;;;5034910;28;20025;-50
2023/01/25 11:49:28;;;;;;;3.92;3.53;;;20.90;28.30;;;;;;4953897;29;20043;-51
2023/01/25 11:52:16;;;;;;;4.95;4.45;;;20.90;28.20;;;;;;4954263;28;20043;-51
2023/01/25 11:55:01;;;;;;;4.20;3.80;;;20.90;28.20;;;;;;5013199;28;20051;-50
2023/01/25 11:57:44;;;;;;;3.85;3.45;;;20.90;28.20;;;;;;5016840;28;20102;-47
2023/01/25 12:00:42;;;;;;;4.30;3.90;;;20.90;28.10;;;;;;5034329;28;20432;-46
2023/01/25 12:03:11;;;;;;;4.35;3.80;;;20.90;28.10;;;;;;5010321;28;20048;-51
2023/01/25 12:06:05;;;;;;;4.57;3.70;;;20.90;28.10;;;;;;5032549;28;20147;-50
2023/01/25 12:09:02;;;;;;;4.30;3.70;;;20.80;28.00;;;;;;5034182;28;20039;-51
2023/01/25 12:12:01;;;;;;;4.88;4.30;;;20.90;28.10;;;;;;5034442;28;20048;-47
2023/01/25 12:14:52;;;;;;;5.18;3.65;;;20.80;28.00;;;;;;5034193;28;20072;-49
2023/01/25 12:17:24;;;;;;;4.47;4.07;;;20.80;28.00;;;;;;5033349;28;20125;-53
2023/01/25 12:19:50;;;;;;;3.92;3.35;;;20.80;28.00;;;;;;5015201;28;20048;-52
2023/01/25 12:22:27;;;;;;;4.68;4.10;;;20.80;28.10;;;;;;5025898;28;20037;-49
2023/01/25 12:25:11;;;;;;;4.10;3.70;;;20.80;28.10;;;;;;5033926;28;20561;-52
2023/01/25 12:28:03;;;;;;;5.45;3.55;;;20.80;28.10;;;;;;5033598;28;20037;-52
2023/01/25 12:31:06;;;;;;;4.22;3.83;;;20.80;28.20;;;;;;5034542;28;20115;-46
2023/01/25 12:33:41;;;;;;;4.45;3.53;;;20.80;28.20;;;;;;5034480;28;20077;-53
2023/01/25 12:36:26;;;;;;;4.13;3.72;;;20.80;28.20;;;;;;5034746;28;20425;-47
2023/01/25 12:39:01;;;;;;;4.30;3.75;;;20.80;28.20;;;;;;5033796;28;20030;-48
2023/01/25 12:41:49;;;;;;;3.85;3.50;;;20.80;28.20;;;;;;5034189;28;20097;-49
2023/01/25 12:44:30;;;;;;;3.60;3.17;;;20.80;28.20;;;;;;5034434;28;20060;-53
2023/01/25 12:47:09;;;;;;;3.63;3.20;;;20.80;28.20;;;;;;5034216;28;20037;-52
2023/01/25 12:49:42;;;;;;;5.13;3.90;;;20.80;28.20;;;;;;5033640;28;20066;-50
2023/01/25 12:52:33;;;;;;;4.13;3.72;;;20.80;28.20;;;;;;5034431;28;20041;-50
2023/01/25 12:55:02;;;;;;;3.88;3.47;;;20.80;28.70;;;;;;5034322;28;20061;-50
2023/01/25 12:58:06;;;;;;;4.15;3.63;;;20.80;28.20;;;;;;5033994;28;20030;-52
2023/01/25 13:00:31;;;;;;;4.03;3.60;;;20.80;28.20;;;;;;5034098;28;20029;-52
2023/01/25 13:03:23;;;;;;;4.32;3.80;;;20.80;28.20;;;;;;5031604;28;20022;-47
2023/01/25 13:06:13;;;;;;;4.13;3.70;;;20.80;28.20;;;;;;5031260;28;20029;-56
2023/01/25 13:09:06;;;;;;;5.13;4.05;;;20.80;28.30;;;;;;5033039;28;20487;-55
2023/01/25 13:11:39;;;;;;;6.90;4.10;;;20.90;28.70;;;;;;5034476;28;20043;-51
2023/01/25 13:14:19;;;;;;;4.28;3.47;;;20.90;28.90;;;;;;5031986;28;20025;-53
2023/01/25 13:16:50;;;;;;;3.45;3.15;;;21.00;29.10;;;;;;5014981;28;20041;-52
2023/01/25 13:19:36;;;;;;;5.30;3.35;;;21.10;29.10;;;;;;5032611;28;20737;-54
2023/01/25 13:22:04;;;;;;;3.95;3.55;;;21.20;29.20;;;;;;5035253;28;20077;-51